sensor_id;sensor_type;location;lat;lon;timestamp;P1;durP1;ratioP1;P2;durP2;ratioP2
68438;SDS011;55421;51.600;5.718;2023-12-20T00:01:06;17.30;;;5.50;;
68438;SDS011;55421;51.600;5.718;2023-12-20T00:03:42;13.80;;;5.90;;
68438;SDS011;55421;51.600;5.718;2023-12-20T00:06:09;17.20;;;5.70;;
68438;SDS011;55421;51.600;5.718;2023-12-20T00:08:36;13.70;;;6.20;;
68438;SDS011;55421;51.600;5.718;2023-12-20T00:11:03;11.10;;;6.20;;
68438;SDS011;55421;51.600;5.718;2023-12-20T00:13:29;16.70;;;7.90;;
68438;SDS011;55421;51.600;5.718;2023-12-20T00:15:55;14.80;;;6.60;;
68438;SDS011;55421;51.600;5.718;2023-12-20T00:18:23;14.10;;;6.40;;
68438;SDS011;55421;51.600;5.718;2023-12-20T00:20:49;12.50;;;6.30;;
68438;SDS011;55421;51.600;5.718;2023-12-20T00:23:16;18.50;;;6.60;;
68438;SDS011;55421;51.600;5.718;2023-12-20T00:25:42;15.90;;;6.90;;
68438;SDS011;55421;51.600;5.718;2023-12-20T00:28:09;14.30;;;6.30;;
68438;SDS011;55421;51.600;5.718;2023-12-20T00:30:35;13.30;;;6.20;;
68438;SDS011;55421;51.600;5.718;2023-12-20T00:33:02;14.00;;;6.00;;
68438;SDS011;55421;51.600;5.718;2023-12-20T00:35:29;20.50;;;6.50;;
68438;SDS011;55421;51.600;5.718;2023-12-20T00:37:55;15.00;;;6.70;;
68438;SDS011;55421;51.600;5.718;2023-12-20T00:40:22;13.80;;;5.80;;
68438;SDS011;55421;51.600;5.718;2023-12-20T00:42:48;18.60;;;5.40;;
68438;SDS011;55421;51.600;5.718;2023-12-20T00:45:15;13.30;;;4.70;;
68438;SDS011;55421;51.600;5.718;2023-12-20T00:47:42;12.00;;;4.80;;
68438;SDS011;55421;51.600;5.718;2023-12-20T00:50:08;11.60;;;4.20;;
68438;SDS011;55421;51.600;5.718;2023-12-20T00:52:35;12.50;;;4.20;;
68438;SDS011;55421;51.600;5.718;2023-12-20T00:55:01;8.80;;;3.20;;
68438;SDS011;55421;51.600;5.718;2023-12-20T00:57:30;10.60;;;3.20;;
68438;SDS011;55421;51.600;5.718;2023-12-20T00:59:57;8.50;;;3.00;;
68438;SDS011;55421;51.600;5.718;2023-12-20T01:02:23;11.90;;;3.70;;
68438;SDS011;55421;51.600;5.718;2023-12-20T01:04:50;20.00;;;3.30;;
68438;SDS011;55421;51.600;5.718;2023-12-20T01:07:16;12.70;;;2.90;;
68438;SDS011;55421;51.600;5.718;2023-12-20T01:09:43;12.50;;;3.20;;
68438;SDS011;55421;51.600;5.718;2023-12-20T01:12:09;9.80;;;2.50;;
68438;SDS011;55421;51.600;5.718;2023-12-20T01:14:36;11.10;;;2.80;;
68438;SDS011;55421;51.600;5.718;2023-12-20T01:17:03;6.80;;;2.20;;
68438;SDS011;55421;51.600;5.718;2023-12-20T01:19:29;12.90;;;3.20;;
68438;SDS011;55421;51.600;5.718;2023-12-20T01:21:56;12.70;;;2.40;;
68438;SDS011;55421;51.600;5.718;2023-12-20T01:24:22;43.00;;;5.10;;
68438;SDS011;55421;51.600;5.718;2023-12-20T01:26:49;14.00;;;2.90;;
68438;SDS011;55421;51.600;5.718;2023-12-20T01:29:15;10.50;;;2.50;;
68438;SDS011;55421;51.600;5.718;2023-12-20T01:31:42;11.20;;;2.20;;
68438;SDS011;55421;51.600;5.718;2023-12-20T01:34:08;8.10;;;2.30;;
68438;SDS011;55421;51.600;5.718;2023-12-20T01:36:35;10.20;;;2.10;;
68438;SDS011;55421;51.600;5.718;2023-12-20T01:39:01;10.20;;;2.50;;
68438;SDS011;55421;51.600;5.718;2023-12-20T01:41:28;12.80;;;2.50;;
68438;SDS011;55421;51.600;5.718;2023-12-20T01:43:54;11.00;;;2.30;;
68438;SDS011;55421;51.600;5.718;2023-12-20T01:46:21;14.80;;;2.80;;
68438;SDS011;55421;51.600;5.718;2023-12-20T01:48:48;9.10;;;2.20;;
68438;SDS011;55421;51.600;5.718;2023-12-20T01:51:15;9.60;;;2.20;;
68438;SDS011;55421;51.600;5.718;2023-12-20T01:53:42;8.30;;;2.50;;
68438;SDS011;55421;51.600;5.718;2023-12-20T01:56:10;7.90;;;2.20;;
68438;SDS011;55421;51.600;5.718;2023-12-20T01:58:43;11.00;;;2.70;;
68438;SDS011;55421;51.600;5.718;2023-12-20T02:01:11;11.60;;;2.20;;
68438;SDS011;55421;51.600;5.718;2023-12-20T02:03:41;6.80;;;1.80;;
68438;SDS011;55421;51.600;5.718;2023-12-20T02:06:09;9.20;;;1.90;;
68438;SDS011;55421;51.600;5.718;2023-12-20T02:08:36;9.90;;;2.40;;
68438;SDS011;55421;51.600;5.718;2023-12-20T02:11:02;10.60;;;2.90;;
68438;SDS011;55421;51.600;5.718;2023-12-20T02:13:30;6.10;;;1.80;;
68438;SDS011;55421;51.600;5.718;2023-12-20T02:15:57;9.60;;;2.40;;
68438;SDS011;55421;51.600;5.718;2023-12-20T02:18:24;12.20;;;2.30;;
68438;SDS011;55421;51.600;5.718;2023-12-20T02:20:50;8.90;;;2.30;;
68438;SDS011;55421;51.600;5.718;2023-12-20T02:23:17;11.00;;;2.70;;
68438;SDS011;55421;51.600;5.718;2023-12-20T02:25:43;10.00;;;2.80;;
68438;SDS011;55421;51.600;5.718;2023-12-20T02:28:10;10.50;;;2.40;;
68438;SDS011;55421;51.600;5.718;2023-12-20T02:30:36;7.70;;;1.90;;
68438;SDS011;55421;51.600;5.718;2023-12-20T02:33:07;11.50;;;2.20;;
68438;SDS011;55421;51.600;5.718;2023-12-20T02:35:36;10.10;;;2.10;;
68438;SDS011;55421;51.600;5.718;2023-12-20T02:38:03;9.50;;;2.00;;
68438;SDS011;55421;51.600;5.718;2023-12-20T02:40:29;9.60;;;1.80;;
68438;SDS011;55421;51.600;5.718;2023-12-20T02:42:56;11.00;;;3.30;;
68438;SDS011;55421;51.600;5.718;2023-12-20T02:45:22;9.40;;;2.10;;
68438;SDS011;55421;51.600;5.718;2023-12-20T02:47:49;9.50;;;2.30;;
68438;SDS011;55421;51.600;5.718;2023-12-20T02:50:15;7.20;;;1.80;;
68438;SDS011;55421;51.600;5.718;2023-12-20T02:52:44;6.30;;;1.90;;
68438;SDS011;55421;51.600;5.718;2023-12-20T02:55:11;7.40;;;2.60;;
68438;SDS011;55421;51.600;5.718;2023-12-20T02:57:38;13.70;;;2.90;;
68438;SDS011;55421;51.600;5.718;2023-12-20T03:00:09;8.60;;;2.00;;
68438;SDS011;55421;51.600;5.718;2023-12-20T03:02:36;5.20;;;1.70;;
68438;SDS011;55421;51.600;5.718;2023-12-20T03:05:03;6.20;;;1.90;;
68438;SDS011;55421;51.600;5.718;2023-12-20T03:07:30;12.90;;;2.20;;
68438;SDS011;55421;51.600;5.718;2023-12-20T03:09:56;8.30;;;1.80;;
68438;SDS011;55421;51.600;5.718;2023-12-20T03:12:23;16.00;;;2.50;;
68438;SDS011;55421;51.600;5.718;2023-12-20T03:14:49;8.70;;;2.50;;
68438;SDS011;55421;51.600;5.718;2023-12-20T03:17:16;15.00;;;2.70;;
68438;SDS011;55421;51.600;5.718;2023-12-20T03:19:43;10.50;;;2.20;;
68438;SDS011;55421;51.600;5.718;2023-12-20T03:22:09;9.10;;;2.70;;
68438;SDS011;55421;51.600;5.718;2023-12-20T03:24:35;11.30;;;2.70;;
68438;SDS011;55421;51.600;5.718;2023-12-20T03:27:02;10.80;;;2.80;;
68438;SDS011;55421;51.600;5.718;2023-12-20T03:29:29;12.10;;;3.30;;
68438;SDS011;55421;51.600;5.718;2023-12-20T03:31:55;12.40;;;2.30;;
68438;SDS011;55421;51.600;5.718;2023-12-20T03:34:22;16.40;;;2.80;;
68438;SDS011;55421;51.600;5.718;2023-12-20T03:36:48;9.70;;;1.70;;
68438;SDS011;55421;51.600;5.718;2023-12-20T03:39:15;7.10;;;2.20;;
68438;SDS011;55421;51.600;5.718;2023-12-20T03:41:41;10.50;;;2.80;;
68438;SDS011;55421;51.600;5.718;2023-12-20T03:44:08;14.20;;;2.70;;
68438;SDS011;55421;51.600;5.718;2023-12-20T03:46:34;13.90;;;3.20;;
68438;SDS011;55421;51.600;5.718;2023-12-20T03:49:00;12.70;;;3.50;;
68438;SDS011;55421;51.600;5.718;2023-12-20T03:51:27;10.90;;;2.90;;
68438;SDS011;55421;51.600;5.718;2023-12-20T03:53:53;9.40;;;2.30;;
68438;SDS011;55421;51.600;5.718;2023-12-20T03:56:20;16.10;;;2.20;;
68438;SDS011;55421;51.600;5.718;2023-12-20T03:58:46;13.60;;;3.00;;
68438;SDS011;55421;51.600;5.718;2023-12-20T04:01:13;14.10;;;2.50;;
68438;SDS011;55421;51.600;5.718;2023-12-20T04:03:39;9.40;;;2.50;;
68438;SDS011;55421;51.600;5.718;2023-12-20T04:06:06;17.10;;;2.70;;
68438;SDS011;55421;51.600;5.718;2023-12-20T04:08:33;10.50;;;3.00;;
68438;SDS011;55421;51.600;5.718;2023-12-20T04:10:59;17.40;;;2.90;;
68438;SDS011;55421;51.600;5.718;2023-12-20T04:13:26;10.00;;;2.40;;
68438;SDS011;55421;51.600;5.718;2023-12-20T04:15:53;10.20;;;2.50;;
68438;SDS011;55421;51.600;5.718;2023-12-20T04:18:19;8.80;;;2.30;;
68438;SDS011;55421;51.600;5.718;2023-12-20T04:20:45;11.50;;;2.60;;
68438;SDS011;55421;51.600;5.718;2023-12-20T04:23:12;11.20;;;2.60;;
68438;SDS011;55421;51.600;5.718;2023-12-20T04:25:38;14.50;;;3.00;;
68438;SDS011;55421;51.600;5.718;2023-12-20T04:28:05;9.30;;;2.50;;
68438;SDS011;55421;51.600;5.718;2023-12-20T04:30:31;9.10;;;2.60;;
68438;SDS011;55421;51.600;5.718;2023-12-20T04:32:57;12.40;;;2.40;;
68438;SDS011;55421;51.600;5.718;2023-12-20T04:35:24;13.60;;;2.30;;
68438;SDS011;55421;51.600;5.718;2023-12-20T04:37:50;7.40;;;2.50;;
68438;SDS011;55421;51.600;5.718;2023-12-20T04:40:17;12.00;;;2.90;;
68438;SDS011;55421;51.600;5.718;2023-12-20T04:42:43;17.50;;;3.30;;
68438;SDS011;55421;51.600;5.718;2023-12-20T04:45:10;10.90;;;2.90;;
68438;SDS011;55421;51.600;5.718;2023-12-20T04:47:39;7.00;;;2.50;;
68438;SDS011;55421;51.600;5.718;2023-12-20T04:50:06;10.70;;;2.70;;
68438;SDS011;55421;51.600;5.718;2023-12-20T04:52:33;14.60;;;3.20;;
68438;SDS011;55421;51.600;5.718;2023-12-20T04:55:01;16.40;;;3.40;;
68438;SDS011;55421;51.600;5.718;2023-12-20T04:57:27;12.70;;;2.90;;
68438;SDS011;55421;51.600;5.718;2023-12-20T04:59:54;15.40;;;3.00;;
68438;SDS011;55421;51.600;5.718;2023-12-20T05:02:20;12.40;;;3.10;;
68438;SDS011;55421;51.600;5.718;2023-12-20T05:04:47;10.00;;;2.70;;
68438;SDS011;55421;51.600;5.718;2023-12-20T05:07:13;15.20;;;3.30;;
68438;SDS011;55421;51.600;5.718;2023-12-20T05:09:40;18.50;;;2.80;;
68438;SDS011;55421;51.600;5.718;2023-12-20T05:12:06;13.60;;;2.90;;
68438;SDS011;55421;51.600;5.718;2023-12-20T05:14:33;12.20;;;3.10;;
68438;SDS011;55421;51.600;5.718;2023-12-20T05:17:00;9.70;;;2.70;;
68438;SDS011;55421;51.600;5.718;2023-12-20T05:19:26;12.00;;;2.70;;
68438;SDS011;55421;51.600;5.718;2023-12-20T05:21:52;11.90;;;2.50;;
68438;SDS011;55421;51.600;5.718;2023-12-20T05:24:19;13.50;;;3.30;;
68438;SDS011;55421;51.600;5.718;2023-12-20T05:26:45;13.40;;;3.20;;
68438;SDS011;55421;51.600;5.718;2023-12-20T05:29:12;11.20;;;2.30;;
68438;SDS011;55421;51.600;5.718;2023-12-20T05:31:38;12.40;;;3.10;;
68438;SDS011;55421;51.600;5.718;2023-12-20T05:34:05;8.90;;;2.50;;
68438;SDS011;55421;51.600;5.718;2023-12-20T05:36:31;14.40;;;2.80;;
68438;SDS011;55421;51.600;5.718;2023-12-20T05:38:58;14.70;;;2.60;;
68438;SDS011;55421;51.600;5.718;2023-12-20T05:41:24;17.30;;;2.90;;
68438;SDS011;55421;51.600;5.718;2023-12-20T05:43:51;11.00;;;3.00;;
68438;SDS011;55421;51.600;5.718;2023-12-20T05:46:17;13.70;;;2.90;;
68438;SDS011;55421;51.600;5.718;2023-12-20T05:48:44;12.10;;;2.70;;
68438;SDS011;55421;51.600;5.718;2023-12-20T05:51:13;15.80;;;4.40;;
68438;SDS011;55421;51.600;5.718;2023-12-20T05:53:40;10.70;;;2.60;;
68438;SDS011;55421;51.600;5.718;2023-12-20T05:56:06;14.70;;;2.50;;
68438;SDS011;55421;51.600;5.718;2023-12-20T05:58:33;15.60;;;2.90;;
68438;SDS011;55421;51.600;5.718;2023-12-20T06:01:00;14.20;;;2.70;;
68438;SDS011;55421;51.600;5.718;2023-12-20T06:03:26;19.30;;;3.10;;
68438;SDS011;55421;51.600;5.718;2023-12-20T06:05:52;10.00;;;2.80;;
68438;SDS011;55421;51.600;5.718;2023-12-20T06:08:19;15.30;;;3.30;;
68438;SDS011;55421;51.600;5.718;2023-12-20T06:10:45;12.30;;;2.50;;
68438;SDS011;55421;51.600;5.718;2023-12-20T06:13:14;17.50;;;3.10;;
68438;SDS011;55421;51.600;5.718;2023-12-20T06:15:40;10.60;;;2.80;;
68438;SDS011;55421;51.600;5.718;2023-12-20T06:18:07;11.40;;;2.10;;
68438;SDS011;55421;51.600;5.718;2023-12-20T06:20:35;11.60;;;2.50;;
68438;SDS011;55421;51.600;5.718;2023-12-20T06:23:02;14.30;;;2.70;;
68438;SDS011;55421;51.600;5.718;2023-12-20T06:25:28;18.70;;;3.30;;
68438;SDS011;55421;51.600;5.718;2023-12-20T06:27:55;13.50;;;2.70;;
68438;SDS011;55421;51.600;5.718;2023-12-20T06:30:21;12.40;;;2.90;;
68438;SDS011;55421;51.600;5.718;2023-12-20T06:32:48;11.20;;;2.60;;
68438;SDS011;55421;51.600;5.718;2023-12-20T06:35:14;15.80;;;3.10;;
68438;SDS011;55421;51.600;5.718;2023-12-20T06:37:41;15.20;;;2.80;;
68438;SDS011;55421;51.600;5.718;2023-12-20T06:40:10;13.70;;;2.60;;
68438;SDS011;55421;51.600;5.718;2023-12-20T06:42:37;7.20;;;2.20;;
68438;SDS011;55421;51.600;5.718;2023-12-20T06:45:04;12.20;;;2.60;;
68438;SDS011;55421;51.600;5.718;2023-12-20T06:47:31;13.70;;;2.40;;
68438;SDS011;55421;51.600;5.718;2023-12-20T06:49:58;11.90;;;2.80;;
68438;SDS011;55421;51.600;5.718;2023-12-20T06:52:25;12.20;;;2.70;;
68438;SDS011;55421;51.600;5.718;2023-12-20T06:54:51;13.00;;;2.90;;
68438;SDS011;55421;51.600;5.718;2023-12-20T06:57:18;10.60;;;3.00;;
68438;SDS011;55421;51.600;5.718;2023-12-20T06:59:46;16.70;;;3.80;;
68438;SDS011;55421;51.600;5.718;2023-12-20T07:02:12;11.50;;;2.80;;
68438;SDS011;55421;51.600;5.718;2023-12-20T07:04:42;12.40;;;3.10;;
68438;SDS011;55421;51.600;5.718;2023-12-20T07:07:09;13.30;;;3.10;;
68438;SDS011;55421;51.600;5.718;2023-12-20T07:09:35;10.60;;;2.70;;
68438;SDS011;55421;51.600;5.718;2023-12-20T07:12:02;18.50;;;3.40;;
68438;SDS011;55421;51.600;5.718;2023-12-20T07:14:30;13.70;;;3.50;;
68438;SDS011;55421;51.600;5.718;2023-12-20T07:16:57;16.30;;;3.30;;
68438;SDS011;55421;51.600;5.718;2023-12-20T07:19:23;14.70;;;3.50;;
68438;SDS011;55421;51.600;5.718;2023-12-20T07:21:50;17.40;;;4.40;;
68438;SDS011;55421;51.600;5.718;2023-12-20T07:24:16;20.80;;;4.10;;
68438;SDS011;55421;51.600;5.718;2023-12-20T07:26:43;11.10;;;3.60;;
68438;SDS011;55421;51.600;5.718;2023-12-20T07:29:09;11.90;;;3.50;;
68438;SDS011;55421;51.600;5.718;2023-12-20T07:31:36;9.50;;;3.30;;
68438;SDS011;55421;51.600;5.718;2023-12-20T07:34:02;15.60;;;3.70;;
68438;SDS011;55421;51.600;5.718;2023-12-20T07:36:29;15.80;;;3.50;;
68438;SDS011;55421;51.600;5.718;2023-12-20T07:38:55;10.20;;;3.20;;
68438;SDS011;55421;51.600;5.718;2023-12-20T07:41:21;18.30;;;3.40;;
68438;SDS011;55421;51.600;5.718;2023-12-20T07:43:50;14.90;;;3.50;;
68438;SDS011;55421;51.600;5.718;2023-12-20T07:46:16;10.20;;;3.40;;
68438;SDS011;55421;51.600;5.718;2023-12-20T07:48:42;10.60;;;2.80;;
68438;SDS011;55421;51.600;5.718;2023-12-20T07:51:09;11.40;;;3.20;;
68438;SDS011;55421;51.600;5.718;2023-12-20T07:53:36;13.30;;;3.50;;
68438;SDS011;55421;51.600;5.718;2023-12-20T07:56:16;13.30;;;3.30;;
68438;SDS011;55421;51.600;5.718;2023-12-20T07:58:44;13.60;;;3.00;;
68438;SDS011;55421;51.600;5.718;2023-12-20T08:01:11;12.70;;;2.90;;
68438;SDS011;55421;51.600;5.718;2023-12-20T08:03:38;16.20;;;3.10;;
68438;SDS011;55421;51.600;5.718;2023-12-20T08:06:05;13.00;;;3.50;;
68438;SDS011;55421;51.600;5.718;2023-12-20T08:08:31;12.10;;;3.30;;
68438;SDS011;55421;51.600;5.718;2023-12-20T08:10:58;14.80;;;3.20;;
68438;SDS011;55421;51.600;5.718;2023-12-20T08:13:26;10.60;;;2.70;;
68438;SDS011;55421;51.600;5.718;2023-12-20T08:15:53;16.80;;;3.20;;
68438;SDS011;55421;51.600;5.718;2023-12-20T08:18:20;11.40;;;2.70;;
68438;SDS011;55421;51.600;5.718;2023-12-20T08:20:46;8.30;;;2.60;;
68438;SDS011;55421;51.600;5.718;2023-12-20T08:23:15;13.40;;;2.80;;
68438;SDS011;55421;51.600;5.718;2023-12-20T08:25:41;15.10;;;2.80;;
68438;SDS011;55421;51.600;5.718;2023-12-20T08:28:08;14.10;;;3.60;;
68438;SDS011;55421;51.600;5.718;2023-12-20T08:30:34;17.30;;;3.40;;
68438;SDS011;55421;51.600;5.718;2023-12-20T08:33:01;14.50;;;3.60;;
68438;SDS011;55421;51.600;5.718;2023-12-20T08:35:28;12.50;;;3.30;;
68438;SDS011;55421;51.600;5.718;2023-12-20T08:37:56;14.50;;;3.00;;
68438;SDS011;55421;51.600;5.718;2023-12-20T08:40:22;14.60;;;2.70;;
68438;SDS011;55421;51.600;5.718;2023-12-20T08:42:49;14.70;;;3.30;;
68438;SDS011;55421;51.600;5.718;2023-12-20T08:45:18;11.70;;;3.00;;
68438;SDS011;55421;51.600;5.718;2023-12-20T08:47:45;13.90;;;3.10;;
68438;SDS011;55421;51.600;5.718;2023-12-20T08:50:14;12.80;;;2.80;;
68438;SDS011;55421;51.600;5.718;2023-12-20T08:52:41;10.70;;;2.60;;
68438;SDS011;55421;51.600;5.718;2023-12-20T08:55:08;16.40;;;3.20;;
68438;SDS011;55421;51.600;5.718;2023-12-20T08:57:36;12.50;;;2.50;;
68438;SDS011;55421;51.600;5.718;2023-12-20T09:00:03;15.40;;;2.80;;
68438;SDS011;55421;51.600;5.718;2023-12-20T09:02:30;13.40;;;3.20;;
68438;SDS011;55421;51.600;5.718;2023-12-20T09:04:56;9.40;;;2.80;;
68438;SDS011;55421;51.600;5.718;2023-12-20T09:07:24;13.20;;;3.20;;
68438;SDS011;55421;51.600;5.718;2023-12-20T09:09:52;8.20;;;2.50;;
68438;SDS011;55421;51.600;5.718;2023-12-20T09:12:20;10.70;;;2.70;;
68438;SDS011;55421;51.600;5.718;2023-12-20T09:14:48;12.90;;;3.10;;
68438;SDS011;55421;51.600;5.718;2023-12-20T09:17:16;10.30;;;2.30;;
68438;SDS011;55421;51.600;5.718;2023-12-20T09:19:43;15.70;;;3.00;;
68438;SDS011;55421;51.600;5.718;2023-12-20T09:22:11;13.50;;;3.00;;
68438;SDS011;55421;51.600;5.718;2023-12-20T09:24:38;10.20;;;2.70;;
68438;SDS011;55421;51.600;5.718;2023-12-20T09:27:05;10.40;;;2.90;;
68438;SDS011;55421;51.600;5.718;2023-12-20T09:29:32;16.60;;;3.40;;
68438;SDS011;55421;51.600;5.718;2023-12-20T09:31:58;14.50;;;3.10;;
68438;SDS011;55421;51.600;5.718;2023-12-20T09:34:25;16.70;;;3.10;;
68438;SDS011;55421;51.600;5.718;2023-12-20T09:36:53;15.40;;;3.30;;
68438;SDS011;55421;51.600;5.718;2023-12-20T09:39:20;25.20;;;4.00;;
68438;SDS011;55421;51.600;5.718;2023-12-20T09:41:56;15.80;;;3.20;;
68438;SDS011;55421;51.600;5.718;2023-12-20T09:46:56;16.60;;;3.80;;
68438;SDS011;55421;51.600;5.718;2023-12-20T09:49:25;12.80;;;3.60;;
68438;SDS011;55421;51.600;5.718;2023-12-20T09:51:54;13.30;;;3.80;;
68438;SDS011;55421;51.600;5.718;2023-12-20T09:54:22;16.00;;;4.10;;
68438;SDS011;55421;51.600;5.718;2023-12-20T09:56:50;12.30;;;4.50;;
68438;SDS011;55421;51.600;5.718;2023-12-20T09:59:16;10.30;;;3.50;;
68438;SDS011;55421;51.600;5.718;2023-12-20T10:01:43;15.80;;;3.70;;
68438;SDS011;55421;51.600;5.718;2023-12-20T10:04:12;13.50;;;3.30;;
68438;SDS011;55421;51.600;5.718;2023-12-20T10:06:42;17.20;;;4.10;;
68438;SDS011;55421;51.600;5.718;2023-12-20T10:09:12;12.60;;;3.00;;
68438;SDS011;55421;51.600;5.718;2023-12-20T10:11:39;14.90;;;3.60;;
68438;SDS011;55421;51.600;5.718;2023-12-20T10:14:07;11.80;;;3.30;;
68438;SDS011;55421;51.600;5.718;2023-12-20T10:16:34;9.00;;;2.90;;
68438;SDS011;55421;51.600;5.718;2023-12-20T10:19:01;13.40;;;4.10;;
68438;SDS011;55421;51.600;5.718;2023-12-20T10:21:28;19.10;;;3.30;;
68438;SDS011;55421;51.600;5.718;2023-12-20T10:23:55;15.00;;;3.50;;
68438;SDS011;55421;51.600;5.718;2023-12-20T10:26:27;14.60;;;4.20;;
68438;SDS011;55421;51.600;5.718;2023-12-20T10:28:56;13.40;;;3.40;;
68438;SDS011;55421;51.600;5.718;2023-12-20T10:31:27;14.20;;;5.20;;
68438;SDS011;55421;51.600;5.718;2023-12-20T10:33:59;22.90;;;7.10;;
68438;SDS011;55421;51.600;5.718;2023-12-20T10:36:30;17.60;;;4.80;;
68438;SDS011;55421;51.600;5.718;2023-12-20T10:41:30;14.30;;;3.90;;
68438;SDS011;55421;51.600;5.718;2023-12-20T10:43:59;12.90;;;3.40;;
68438;SDS011;55421;51.600;5.718;2023-12-20T10:46:28;11.50;;;3.60;;
68438;SDS011;55421;51.600;5.718;2023-12-20T10:48:56;11.80;;;3.40;;
68438;SDS011;55421;51.600;5.718;2023-12-20T10:51:26;15.60;;;4.10;;
68438;SDS011;55421;51.600;5.718;2023-12-20T10:53:54;14.70;;;3.60;;
68438;SDS011;55421;51.600;5.718;2023-12-20T10:56:22;9.70;;;2.90;;
68438;SDS011;55421;51.600;5.718;2023-12-20T10:58:53;19.20;;;3.00;;
68438;SDS011;55421;51.600;5.718;2023-12-20T11:01:20;18.20;;;3.70;;
68438;SDS011;55421;51.600;5.718;2023-12-20T11:03:52;11.70;;;3.00;;
68438;SDS011;55421;51.600;5.718;2023-12-20T11:12:22;11.70;;;2.80;;
68438;SDS011;55421;51.600;5.718;2023-12-20T11:15:04;7.20;;;2.10;;
68438;SDS011;55421;51.600;5.718;2023-12-20T11:17:39;12.30;;;2.60;;
68438;SDS011;55421;51.600;5.718;2023-12-20T11:20:07;10.90;;;2.70;;
68438;SDS011;55421;51.600;5.718;2023-12-20T11:22:38;12.80;;;3.00;;
68438;SDS011;55421;51.600;5.718;2023-12-20T11:25:10;17.50;;;3.60;;
68438;SDS011;55421;51.600;5.718;2023-12-20T11:27:41;10.40;;;2.60;;
68438;SDS011;55421;51.600;5.718;2023-12-20T11:30:09;14.50;;;3.90;;
68438;SDS011;55421;51.600;5.718;2023-12-20T11:32:37;12.40;;;2.60;;
68438;SDS011;55421;51.600;5.718;2023-12-20T11:37:37;11.50;;;2.70;;
68438;SDS011;55421;51.600;5.718;2023-12-20T11:40:12;14.20;;;2.60;;
68438;SDS011;55421;51.600;5.718;2023-12-20T11:42:42;15.40;;;2.80;;
68438;SDS011;55421;51.600;5.718;2023-12-20T11:45:14;16.00;;;2.40;;
68438;SDS011;55421;51.600;5.718;2023-12-20T11:47:49;11.70;;;3.10;;
68438;SDS011;55421;51.600;5.718;2023-12-20T11:50:20;9.70;;;2.40;;
68438;SDS011;55421;51.600;5.718;2023-12-20T11:52:48;14.40;;;2.70;;
68438;SDS011;55421;51.600;5.718;2023-12-20T11:55:15;11.00;;;2.90;;
68438;SDS011;55421;51.600;5.718;2023-12-20T11:57:43;12.70;;;3.10;;
68438;SDS011;55421;51.600;5.718;2023-12-20T12:00:12;8.30;;;2.60;;
68438;SDS011;55421;51.600;5.718;2023-12-20T12:02:40;7.60;;;2.60;;
68438;SDS011;55421;51.600;5.718;2023-12-20T12:05:07;17.50;;;3.20;;
68438;SDS011;55421;51.600;5.718;2023-12-20T12:07:35;11.10;;;2.60;;
68438;SDS011;55421;51.600;5.718;2023-12-20T12:10:02;13.20;;;2.70;;
68438;SDS011;55421;51.600;5.718;2023-12-20T12:12:29;15.40;;;3.40;;
68438;SDS011;55421;51.600;5.718;2023-12-20T12:14:57;8.70;;;2.60;;
68438;SDS011;55421;51.600;5.718;2023-12-20T12:17:24;8.60;;;3.00;;
68438;SDS011;55421;51.600;5.718;2023-12-20T12:20:02;12.30;;;3.00;;
68438;SDS011;55421;51.600;5.718;2023-12-20T12:22:30;11.40;;;2.60;;
68438;SDS011;55421;51.600;5.718;2023-12-20T12:24:59;18.10;;;3.30;;
68438;SDS011;55421;51.600;5.718;2023-12-20T12:27:36;14.90;;;3.70;;
68438;SDS011;55421;51.600;5.718;2023-12-20T12:30:06;10.40;;;2.90;;
68438;SDS011;55421;51.600;5.718;2023-12-20T12:32:36;12.70;;;2.70;;
68438;SDS011;55421;51.600;5.718;2023-12-20T12:35:04;14.10;;;3.90;;
68438;SDS011;55421;51.600;5.718;2023-12-20T12:37:34;13.90;;;3.50;;
68438;SDS011;55421;51.600;5.718;2023-12-20T12:40:06;9.60;;;2.70;;
68438;SDS011;55421;51.600;5.718;2023-12-20T12:42:37;15.60;;;3.70;;
68438;SDS011;55421;51.600;5.718;2023-12-20T12:45:05;20.20;;;3.80;;
68438;SDS011;55421;51.600;5.718;2023-12-20T12:47:32;10.80;;;2.60;;
68438;SDS011;55421;51.600;5.718;2023-12-20T12:50:00;14.70;;;3.40;;
68438;SDS011;55421;51.600;5.718;2023-12-20T12:52:26;10.80;;;3.00;;
68438;SDS011;55421;51.600;5.718;2023-12-20T12:54:53;14.20;;;2.90;;
68438;SDS011;55421;51.600;5.718;2023-12-20T12:57:20;12.70;;;3.10;;
68438;SDS011;55421;51.600;5.718;2023-12-20T12:59:46;16.10;;;3.60;;
68438;SDS011;55421;51.600;5.718;2023-12-20T13:02:13;18.40;;;3.90;;
68438;SDS011;55421;51.600;5.718;2023-12-20T13:04:40;14.60;;;2.80;;
68438;SDS011;55421;51.600;5.718;2023-12-20T13:07:08;10.20;;;4.00;;
68438;SDS011;55421;51.600;5.718;2023-12-20T13:09:39;17.40;;;2.80;;
68438;SDS011;55421;51.600;5.718;2023-12-20T13:12:06;15.30;;;3.40;;
68438;SDS011;55421;51.600;5.718;2023-12-20T13:14:34;7.80;;;2.90;;
68438;SDS011;55421;51.600;5.718;2023-12-20T13:17:03;15.00;;;3.10;;
68438;SDS011;55421;51.600;5.718;2023-12-20T13:19:30;13.50;;;3.50;;
68438;SDS011;55421;51.600;5.718;2023-12-20T13:21:57;15.70;;;3.90;;
68438;SDS011;55421;51.600;5.718;2023-12-20T13:24:24;13.60;;;3.70;;
68438;SDS011;55421;51.600;5.718;2023-12-20T13:26:51;17.20;;;4.10;;
68438;SDS011;55421;51.600;5.718;2023-12-20T13:29:17;12.40;;;3.70;;
68438;SDS011;55421;51.600;5.718;2023-12-20T13:31:44;11.00;;;2.60;;
68438;SDS011;55421;51.600;5.718;2023-12-20T13:34:10;14.50;;;3.50;;
68438;SDS011;55421;51.600;5.718;2023-12-20T13:36:37;18.20;;;3.70;;
68438;SDS011;55421;51.600;5.718;2023-12-20T13:39:04;9.40;;;3.30;;
68438;SDS011;55421;51.600;5.718;2023-12-20T13:41:31;9.00;;;2.70;;
68438;SDS011;55421;51.600;5.718;2023-12-20T13:43:58;11.30;;;3.40;;
68438;SDS011;55421;51.600;5.718;2023-12-20T13:46:24;13.70;;;4.00;;
68438;SDS011;55421;51.600;5.718;2023-12-20T13:48:50;16.70;;;4.40;;
68438;SDS011;55421;51.600;5.718;2023-12-20T13:51:17;17.00;;;3.60;;
68438;SDS011;55421;51.600;5.718;2023-12-20T13:53:44;14.00;;;3.40;;
68438;SDS011;55421;51.600;5.718;2023-12-20T13:56:10;11.10;;;4.00;;
68438;SDS011;55421;51.600;5.718;2023-12-20T13:58:37;11.10;;;3.20;;
68438;SDS011;55421;51.600;5.718;2023-12-20T14:01:03;12.10;;;3.50;;
68438;SDS011;55421;51.600;5.718;2023-12-20T14:03:30;10.60;;;3.00;;
68438;SDS011;55421;51.600;5.718;2023-12-20T14:05:57;24.40;;;5.00;;
68438;SDS011;55421;51.600;5.718;2023-12-20T14:08:23;12.90;;;3.10;;
68438;SDS011;55421;51.600;5.718;2023-12-20T14:10:50;13.00;;;3.60;;
68438;SDS011;55421;51.600;5.718;2023-12-20T14:13:16;12.50;;;3.50;;
68438;SDS011;55421;51.600;5.718;2023-12-20T14:15:43;16.00;;;4.70;;
68438;SDS011;55421;51.600;5.718;2023-12-20T14:18:10;21.20;;;5.10;;
68438;SDS011;55421;51.600;5.718;2023-12-20T14:20:38;16.90;;;4.60;;
68438;SDS011;55421;51.600;5.718;2023-12-20T14:23:06;14.00;;;4.00;;
68438;SDS011;55421;51.600;5.718;2023-12-20T14:25:32;9.00;;;3.70;;
68438;SDS011;55421;51.600;5.718;2023-12-20T14:27:59;15.40;;;4.40;;
68438;SDS011;55421;51.600;5.718;2023-12-20T14:30:26;16.50;;;4.50;;
68438;SDS011;55421;51.600;5.718;2023-12-20T14:32:56;18.50;;;5.40;;
68438;SDS011;55421;51.600;5.718;2023-12-20T14:35:22;15.30;;;4.40;;
68438;SDS011;55421;51.600;5.718;2023-12-20T14:37:49;14.30;;;4.20;;
68438;SDS011;55421;51.600;5.718;2023-12-20T14:40:19;14.80;;;4.60;;
68438;SDS011;55421;51.600;5.718;2023-12-20T14:42:45;16.20;;;4.30;;
68438;SDS011;55421;51.600;5.718;2023-12-20T14:45:14;17.00;;;5.20;;
68438;SDS011;55421;51.600;5.718;2023-12-20T14:47:42;12.10;;;4.60;;
68438;SDS011;55421;51.600;5.718;2023-12-20T14:50:12;15.20;;;4.20;;